createdAt,value
2022-08-05T00:00:20.841Z,14.84
2022-08-05T00:02:51.707Z,14.71
2022-08-05T00:05:27.255Z,14.69
2022-08-05T00:08:35.199Z,14.68
2022-08-05T00:11:55.821Z,14.56
2022-08-05T00:14:47.532Z,14.57
2022-08-05T00:17:29.883Z,14.55
2022-08-05T00:20:02.816Z,14.50
2022-08-05T00:22:59.607Z,14.45
2022-08-05T00:25:48.151Z,14.42
2022-08-05T00:28:29.768Z,14.38
2022-08-05T00:31:04.201Z,14.29
2022-08-05T00:34:56.732Z,14.29
2022-08-05T00:40:12.836Z,14.16
2022-08-05T00:43:02.543Z,14.09
2022-08-05T00:56:31.668Z,13.85
2022-08-05T01:03:30.847Z,13.74
2022-08-05T01:06:51.802Z,13.67
2022-08-05T01:09:26.122Z,13.60
2022-08-05T01:20:47.673Z,13.36
2022-08-05T01:30:18.980Z,13.28
2022-08-05T01:33:26.245Z,13.29
2022-08-05T01:35:58.017Z,13.31
2022-08-05T01:45:43.375Z,13.09
2022-08-05T01:51:51.798Z,13.08
2022-08-05T01:58:12.556Z,12.99
2022-08-05T02:04:34.523Z,12.91
2022-08-05T02:07:04.076Z,12.88
2022-08-05T02:09:33.693Z,12.85
2022-08-05T02:26:07.681Z,12.72
2022-08-05T02:29:21.646Z,12.66
2022-08-05T02:38:53.373Z,12.47
2022-08-05T02:41:23.943Z,12.48
2022-08-05T02:44:02.596Z,12.48
2022-08-05T02:50:06.683Z,12.31
2022-08-05T02:52:54.401Z,12.26
2022-08-05T02:55:54.009Z,12.23
2022-08-05T03:02:00.845Z,12.21
2022-08-05T03:11:55.561Z,12.21
2022-08-05T03:14:25.264Z,12.17
2022-08-05T03:16:54.069Z,12.13
2022-08-05T03:19:33.810Z,12.07
2022-08-05T03:22:04.877Z,12.05
2022-08-05T03:24:54.560Z,12.03
2022-08-05T03:27:39.299Z,12.06
2022-08-05T03:30:17.304Z,12.05
2022-08-05T03:43:59.235Z,11.97
2022-08-05T03:47:03.521Z,11.90
2022-08-05T03:49:57.249Z,11.86
2022-08-05T03:52:38.147Z,11.85
2022-08-05T03:59:02.009Z,11.76
2022-08-05T04:01:32.158Z,11.76
2022-08-05T04:04:10.035Z,11.78
2022-08-05T04:07:07.680Z,11.70
2022-08-05T04:09:36.529Z,11.73
2022-08-05T04:12:24.961Z,11.71
2022-08-05T04:15:15.571Z,11.67
2022-08-05T04:17:55.500Z,11.71
2022-08-05T04:21:04.748Z,11.67
2022-08-05T04:27:42.161Z,11.61
2022-08-05T04:30:11.728Z,11.61
2022-08-05T04:32:39.234Z,11.65
2022-08-05T04:35:17.436Z,11.63
2022-08-05T04:41:58.468Z,11.60
2022-08-05T04:48:18.631Z,11.50
2022-08-05T04:51:03.840Z,11.54
2022-08-05T04:53:40.096Z,11.54
2022-08-05T04:56:33.381Z,11.59
2022-08-05T04:58:56.747Z,11.59
2022-08-05T05:02:05.792Z,11.63
2022-08-05T05:04:32.532Z,11.66
2022-08-05T05:07:10.143Z,11.83
2022-08-05T05:10:15.722Z,12.03
2022-08-05T05:13:04.083Z,12.15
2022-08-05T05:16:34.390Z,12.16
2022-08-05T05:19:18.996Z,12.23
2022-08-05T05:25:32.557Z,12.33
2022-08-05T05:31:49.404Z,12.33
2022-08-05T05:34:27.018Z,12.37
2022-08-05T05:36:54.720Z,12.37
2022-08-05T05:39:42.527Z,12.43
2022-08-05T05:42:12.760Z,12.44
2022-08-05T05:44:52.199Z,12.46
2022-08-05T05:48:06.051Z,12.46
2022-08-05T05:54:59.131Z,12.49
2022-08-05T06:02:31.014Z,12.43
2022-08-05T06:05:24.681Z,12.43
2022-08-05T06:07:57.781Z,12.45
2022-08-05T06:14:13.392Z,12.56
2022-08-05T06:20:47.759Z,12.70
2022-08-05T06:23:15.508Z,12.79
2022-08-05T06:29:49.680Z,12.90
2022-08-05T06:32:30.127Z,12.90
2022-08-05T06:35:15.539Z,12.90
2022-08-05T06:37:57.481Z,12.98
2022-08-05T06:44:02.180Z,13.30
2022-08-05T06:46:30.707Z,13.38
2022-08-05T06:50:00.259Z,13.44
2022-08-05T06:53:33.722Z,13.54
2022-08-05T06:56:07.276Z,13.61
2022-08-05T06:58:53.815Z,13.69
2022-08-05T07:01:32.598Z,13.75
2022-08-05T07:04:02.247Z,13.75
2022-08-05T07:06:30.112Z,13.83
2022-08-05T07:09:04.853Z,14.02
2022-08-05T07:11:37.192Z,14.16
2022-08-05T07:14:29.531Z,14.32
2022-08-05T07:17:59.946Z,14.40
2022-08-05T07:22:42.355Z,14.56
2022-08-05T07:25:23.148Z,14.67
2022-08-05T07:28:25.436Z,14.75
2022-08-05T07:30:54.873Z,14.81
2022-08-05T07:33:36.671Z,14.86
2022-08-05T07:36:26.388Z,14.85
2022-08-05T07:38:55.186Z,14.78
2022-08-05T07:42:07.064Z,14.83
2022-08-05T07:44:18.553Z,14.90
2022-08-05T07:47:07.930Z,14.98
2022-08-05T07:49:43.609Z,15.04
2022-08-05T07:52:23.951Z,15.11
2022-08-05T07:55:44.607Z,15.23
2022-08-05T07:58:07.312Z,15.34
2022-08-05T08:04:59.108Z,15.49
2022-08-05T08:07:28.217Z,15.53
2022-08-05T08:09:56.478Z,15.66
2022-08-05T08:12:35.036Z,15.78
2022-08-05T08:15:13.830Z,15.96
2022-08-05T08:18:31.420Z,16.22
2022-08-05T08:21:17.412Z,16.52
2022-08-05T08:24:01.354Z,16.85
2022-08-05T08:26:53.015Z,17.09
2022-08-05T08:29:29.569Z,17.33
2022-08-05T08:32:10.833Z,17.50
2022-08-05T08:38:39.779Z,18.27
2022-08-05T08:41:52.276Z,18.60
2022-08-05T08:45:18.223Z,18.50
2022-08-05T08:47:22.181Z,18.30
2022-08-05T08:50:23.138Z,18.27
2022-08-05T08:53:01.263Z,18.55
2022-08-05T08:56:02.443Z,19.34
2022-08-05T08:58:37.491Z,20.14
2022-08-05T09:01:15.883Z,20.85
2022-08-05T09:03:45.810Z,21.52
2022-08-05T09:06:17.205Z,21.78
2022-08-05T09:08:45.926Z,22.16
2022-08-05T09:11:18.403Z,22.09
2022-08-05T09:14:54.555Z,21.98
2022-08-05T09:16:53.412Z,21.92
2022-08-05T09:19:21.579Z,21.71
2022-08-05T09:22:22.972Z,21.93
2022-08-05T09:24:44.997Z,21.86
2022-08-05T09:28:04.125Z,21.35
2022-08-05T09:30:23.361Z,20.65
2022-08-05T09:32:52.006Z,20.09
2022-08-05T09:35:27.180Z,19.52
2022-08-05T09:38:17.183Z,19.03
2022-08-05T09:41:39.114Z,18.59
2022-08-05T09:44:08.602Z,18.23
2022-08-05T09:46:38.579Z,18.13
2022-08-05T09:50:02.308Z,19.15
2022-08-05T09:52:53.073Z,20.19
2022-08-05T09:55:56.620Z,21.10
2022-08-05T09:58:11.439Z,21.66
2022-08-05T10:01:00.658Z,21.66
2022-08-05T10:03:56.889Z,21.33
2022-08-05T10:06:19.620Z,20.93
2022-08-05T10:09:30.778Z,20.43
2022-08-05T10:12:18.521Z,19.79
2022-08-05T10:15:37.680Z,19.24
2022-08-05T10:18:13.036Z,18.80
2022-08-05T10:20:48.463Z,18.58
2022-08-05T10:26:32.660Z,18.41
2022-08-05T10:29:24.169Z,18.27
2022-08-05T10:32:54.723Z,18.44
2022-08-05T10:35:00.916Z,18.35
2022-08-05T10:37:37.544Z,18.22
2022-08-05T10:40:45.089Z,18.09
2022-08-05T10:43:35.583Z,17.98
2022-08-05T10:46:09.221Z,17.82
2022-08-05T10:48:56.916Z,17.67
2022-08-05T10:51:29.144Z,17.66
2022-08-05T10:54:23.083Z,17.67
2022-08-05T10:56:57.756Z,17.70
2022-08-05T11:00:03.101Z,17.74
2022-08-05T11:02:37.739Z,17.89
2022-08-05T11:05:25.230Z,18.07
2022-08-05T11:08:17.062Z,18.22
2022-08-05T11:11:01.024Z,18.36
2022-08-05T11:13:58.067Z,18.42
2022-08-05T11:16:33.836Z,18.52
2022-08-05T11:20:17.151Z,18.90
2022-08-05T11:22:42.595Z,19.22
2022-08-05T11:26:04.685Z,19.40
2022-08-05T11:28:47.362Z,19.47
2022-08-05T11:31:54.448Z,19.59
2022-08-05T11:34:08.120Z,19.64
2022-08-05T11:36:47.430Z,19.71
2022-08-05T11:39:50.413Z,19.85
2022-08-05T11:42:29.288Z,19.99
2022-08-05T11:45:05.390Z,20.19
2022-08-05T11:47:49.985Z,20.18
2022-08-05T11:50:38.475Z,20.17
2022-08-05T11:53:06.330Z,20.29
2022-08-05T11:55:37.433Z,20.33
2022-08-05T11:58:09.444Z,20.41
2022-08-05T12:00:41.564Z,20.42
2022-08-05T12:03:29.218Z,20.22
2022-08-05T12:06:06.702Z,20.33
2022-08-05T12:08:57.939Z,20.38
2022-08-05T12:11:40.467Z,20.58
2022-08-05T12:14:10.102Z,20.68
2022-08-05T12:16:38.799Z,20.81
2022-08-05T12:19:08.662Z,20.73
2022-08-05T12:21:41.938Z,20.53
2022-08-05T12:24:20.700Z,20.27
2022-08-05T12:26:50.211Z,19.91
2022-08-05T12:29:22.842Z,19.74
2022-08-05T12:31:55.776Z,19.61
2022-08-05T12:34:28.680Z,19.64
2022-08-05T12:36:58.797Z,19.70
2022-08-05T12:40:10.731Z,19.84
2022-08-05T12:42:39.784Z,20.00
2022-08-05T12:45:48.331Z,20.08
2022-08-05T12:48:32.679Z,20.16
2022-08-05T12:52:10.393Z,20.21
2022-08-05T12:54:16.895Z,20.29
2022-08-05T12:56:54.899Z,20.37
2022-08-05T13:01:57.535Z,20.31
2022-08-05T13:02:36.192Z,20.36
2022-08-05T13:05:06.850Z,20.33
2022-08-05T13:07:59.325Z,20.27
2022-08-05T13:10:50.366Z,20.11
2022-08-05T13:17:07.658Z,19.88
2022-08-05T13:19:40.354Z,20.11
2022-08-05T13:22:46.642Z,20.46
2022-08-05T13:25:19.120Z,20.69
2022-08-05T13:27:52.104Z,20.58
2022-08-05T13:30:35.861Z,20.50
2022-08-05T13:34:24.931Z,20.74
2022-08-05T13:36:13.121Z,21.12
2022-08-05T13:38:43.101Z,21.42
2022-08-05T13:41:41.114Z,21.53
2022-08-05T13:44:10.098Z,21.79
2022-08-05T13:46:58.358Z,21.98
2022-08-05T13:49:26.824Z,22.13
2022-08-05T13:52:18.662Z,22.36
2022-08-05T13:58:11.067Z,22.47
2022-08-05T14:00:38.457Z,22.42
2022-08-05T14:03:08.921Z,22.29
2022-08-05T14:06:24.565Z,22.03
2022-08-05T14:08:27.950Z,22.32
2022-08-05T14:11:20.986Z,22.39
2022-08-05T14:14:01.550Z,22.52
2022-08-05T14:16:31.495Z,22.42
2022-08-05T14:19:55.089Z,22.30
2022-08-05T14:22:24.505Z,21.90
2022-08-05T14:24:58.380Z,21.78
2022-08-05T14:27:28.386Z,21.50
2022-08-05T14:29:56.386Z,21.40
2022-08-05T14:32:27.421Z,21.35
2022-08-05T14:34:56.978Z,21.35
2022-08-05T14:37:45.433Z,21.45
2022-08-05T14:40:18.589Z,21.51
2022-08-05T14:42:46.005Z,21.52
2022-08-05T14:45:17.223Z,21.45
2022-08-05T14:48:05.175Z,21.28
2022-08-05T14:50:39.722Z,21.52
2022-08-05T14:53:30.856Z,22.06
2022-08-05T14:56:08.895Z,22.56
2022-08-05T14:58:39.349Z,22.90
2022-08-05T15:01:16.172Z,23.16
2022-08-05T15:03:44.237Z,23.36
2022-08-05T15:06:15.766Z,23.34
2022-08-05T15:08:59.118Z,23.27
2022-08-05T15:11:53.637Z,23.36
2022-08-05T15:14:41.463Z,23.62
2022-08-05T15:17:45.043Z,23.89
2022-08-05T15:20:04.144Z,24.15
2022-08-05T15:22:56.725Z,24.33
2022-08-05T15:25:51.441Z,24.57
2022-08-05T15:28:13.214Z,24.65
2022-08-05T15:30:42.372Z,24.66
2022-08-05T15:33:11.728Z,24.80
2022-08-05T15:35:45.351Z,24.78
2022-08-05T15:38:35.438Z,24.74
2022-08-05T15:41:22.398Z,24.72
2022-08-05T15:43:54.901Z,24.41
2022-08-05T15:46:24.238Z,24.13
2022-08-05T15:48:58.668Z,23.84
2022-08-05T15:52:09.974Z,23.55
2022-08-05T15:54:20.966Z,23.37
2022-08-05T15:57:03.947Z,23.22
2022-08-05T15:59:35.531Z,23.43
2022-08-05T16:02:02.863Z,23.97
2022-08-05T16:04:37.172Z,24.53
2022-08-05T16:07:06.344Z,24.93
2022-08-05T16:09:45.944Z,25.20
2022-08-05T16:12:13.250Z,25.41
2022-08-05T16:14:43.580Z,25.58
2022-08-05T16:17:12.437Z,25.84
2022-08-05T16:20:04.442Z,25.99
2022-08-05T16:22:33.996Z,26.11
2022-08-05T16:25:05.314Z,25.67
2022-08-05T16:28:00.076Z,25.35
2022-08-05T16:30:28.639Z,25.21
2022-08-05T16:32:57.967Z,25.35
2022-08-05T16:35:28.380Z,25.40
2022-08-05T16:42:13.584Z,25.69
2022-08-05T16:44:35.130Z,25.36
2022-08-05T16:47:36.153Z,25.04
2022-08-05T16:50:10.518Z,24.66
2022-08-05T16:52:38.183Z,24.25
2022-08-05T16:55:13.362Z,23.88
2022-08-05T16:58:00.403Z,23.71
2022-08-05T17:00:34.609Z,23.49
2022-08-05T17:03:15.324Z,23.36
2022-08-05T17:05:53.681Z,23.16
2022-08-05T17:08:36.698Z,22.92
2022-08-05T17:11:16.706Z,22.94
2022-08-05T17:13:45.172Z,22.82
2022-08-05T17:16:30.176Z,22.91
2022-08-05T17:19:01.764Z,22.97
2022-08-05T17:21:43.919Z,22.84
2022-08-05T17:24:40.481Z,22.73
2022-08-05T17:27:12.882Z,22.69
2022-08-05T17:29:43.671Z,22.59
2022-08-05T17:32:17.200Z,22.77
2022-08-05T17:36:08.683Z,23.03
2022-08-05T17:38:29.430Z,23.33
2022-08-05T17:40:56.899Z,23.45
2022-08-05T17:43:46.948Z,23.73
2022-08-05T17:46:12.285Z,23.57
2022-08-05T17:49:01.511Z,22.99
2022-08-05T17:51:40.150Z,22.74
2022-08-05T17:54:08.223Z,22.54
2022-08-05T17:56:37.303Z,22.33
2022-08-05T17:59:04.852Z,22.11
2022-08-05T18:01:49.248Z,21.96
2022-08-05T18:04:21.171Z,21.89
2022-08-05T18:06:49.075Z,21.82
2022-08-05T18:09:17.717Z,21.79
2022-08-05T18:15:49.396Z,21.66
2022-08-05T18:18:16.939Z,21.62
2022-08-05T18:20:44.429Z,21.60
2022-08-05T18:23:14.562Z,21.58
2022-08-05T18:25:45.631Z,21.55
2022-08-05T18:28:16.053Z,21.65
2022-08-05T18:30:51.406Z,21.77
2022-08-05T18:33:47.277Z,21.77
2022-08-05T18:36:19.481Z,21.74
2022-08-05T18:38:47.302Z,21.62
2022-08-05T18:41:56.227Z,21.57
2022-08-05T18:44:05.788Z,21.49
2022-08-05T18:46:34.210Z,21.38
2022-08-05T18:49:20.386Z,21.22
2022-08-05T18:52:08.842Z,21.11
2022-08-05T18:59:41.994Z,20.72
2022-08-05T19:02:33.397Z,20.54
2022-08-05T19:06:05.985Z,20.45
2022-08-05T19:07:55.342Z,20.32
2022-08-05T19:18:08.507Z,20.12
2022-08-05T19:25:06.286Z,19.91
2022-08-05T19:27:56.013Z,19.92
2022-08-05T19:30:23.809Z,19.84
2022-08-05T19:32:51.872Z,19.75
2022-08-05T19:36:10.763Z,19.65
2022-08-05T19:43:24.383Z,19.56
2022-08-05T19:46:16.640Z,19.54
2022-08-05T19:48:54.642Z,19.37
2022-08-05T19:52:08.373Z,19.38
2022-08-05T19:54:31.894Z,19.37
2022-08-05T19:57:08.516Z,19.27
2022-08-05T20:00:52.830Z,19.10
2022-08-05T20:03:42.154Z,19.02
2022-08-05T20:06:15.950Z,19.01
2022-08-05T20:08:56.570Z,18.93
2022-08-05T20:11:57.515Z,18.82
2022-08-05T20:15:11.561Z,18.72
2022-08-05T20:18:10.848Z,18.56
2022-08-05T20:21:04.509Z,18.52
2022-08-05T20:23:40.502Z,18.41
2022-08-05T20:26:48.580Z,18.27
2022-08-05T20:29:26.826Z,18.28
2022-08-05T20:32:30.803Z,18.16
2022-08-05T20:35:00.624Z,18.20
2022-08-05T20:38:05.942Z,18.20
2022-08-05T20:40:35.614Z,18.15
2022-08-05T20:43:04.432Z,18.14
2022-08-05T20:45:56.514Z,18.13
2022-08-05T20:48:27.035Z,18.05
2022-08-05T20:50:54.992Z,18.01
2022-08-05T20:53:36.429Z,17.94
2022-08-05T20:56:09.682Z,17.93
2022-08-05T20:58:37.504Z,17.90
2022-08-05T21:01:06.687Z,17.86
2022-08-05T21:03:35.113Z,17.88
2022-08-05T21:06:27.772Z,17.87
2022-08-05T21:08:55.483Z,17.81
2022-08-05T21:12:07.034Z,17.75
2022-08-05T21:14:21.485Z,17.68
2022-08-05T21:17:14.598Z,17.61
2022-08-05T21:19:46.978Z,17.56
2022-08-05T21:22:21.831Z,17.46
2022-08-05T21:24:52.728Z,17.38
2022-08-05T21:27:25.026Z,17.32
2022-08-05T21:29:56.431Z,17.34
2022-08-05T21:32:28.419Z,17.27
2022-08-05T21:35:08.871Z,17.23
2022-08-05T21:37:52.919Z,17.21
2022-08-05T21:40:23.393Z,17.17
2022-08-05T21:42:53.667Z,17.09
2022-08-05T21:45:38.127Z,17.02
2022-08-05T21:48:10.259Z,16.95
2022-08-05T21:50:42.247Z,16.86
2022-08-05T21:53:27.766Z,16.89
2022-08-05T21:56:06.440Z,16.87
2022-08-05T21:58:57.100Z,16.78
2022-08-05T22:01:26.486Z,16.72
2022-08-05T22:03:54.425Z,16.66
2022-08-05T22:06:39.645Z,16.66
2022-08-05T22:09:13.647Z,16.63
2022-08-05T22:11:48.444Z,16.60
2022-08-05T22:14:34.643Z,16.58
2022-08-05T22:17:06.951Z,16.56
2022-08-05T22:20:03.367Z,16.48
2022-08-05T22:22:58.779Z,16.49
2022-08-05T22:26:11.004Z,16.50
2022-08-05T22:28:33.263Z,16.51
2022-08-05T22:31:05.239Z,16.45
2022-08-05T22:33:55.568Z,16.42
2022-08-05T22:36:24.171Z,16.38
2022-08-05T22:38:53.711Z,16.32
2022-08-05T22:42:05.389Z,16.36
2022-08-05T22:44:13.923Z,16.28
2022-08-05T22:46:46.619Z,16.16
2022-08-05T22:50:17.289Z,16.14
2022-08-05T22:52:05.313Z,16.06
2022-08-05T22:54:38.789Z,15.97
2022-08-05T22:57:07.369Z,16.04
2022-08-05T22:59:44.031Z,16.14
2022-08-05T23:02:17.549Z,16.05
2022-08-05T23:04:51.558Z,15.87
2022-08-05T23:07:22.143Z,15.82
2022-08-05T23:09:58.376Z,15.81
2022-08-05T23:12:32.567Z,15.70
2022-08-05T23:15:03.369Z,15.60
2022-08-05T23:17:37.208Z,15.65
2022-08-05T23:20:17.386Z,15.70
2022-08-05T23:22:47.634Z,15.65
2022-08-05T23:25:51.778Z,15.61
2022-08-05T23:28:07.197Z,15.61
2022-08-05T23:30:53.042Z,15.57
2022-08-05T23:33:26.428Z,15.49
2022-08-05T23:36:10.237Z,15.53
2022-08-05T23:38:38.206Z,15.54
2022-08-05T23:41:05.455Z,15.52
2022-08-05T23:44:03.007Z,15.43
2022-08-05T23:46:32.981Z,15.31
2022-08-05T23:49:15.922Z,15.21
2022-08-05T23:52:05.568Z,15.21
2022-08-05T23:54:38.143Z,15.21
2022-08-05T23:57:28.015Z,15.19
